sensor_id;sensor_type;location;lat;lon;timestamp;temperature;humidity
81202;DHT22;71068;47.662;-2.750;2023-08-08T00:00:47;18.30;69.60
81202;DHT22;71068;47.662;-2.750;2023-08-08T00:03:14;18.20;69.90
81202;DHT22;71068;47.662;-2.750;2023-08-08T00:05:40;18.10;70.60
81202;DHT22;71068;47.662;-2.750;2023-08-08T00:08:07;18.10;71.00
81202;DHT22;71068;47.662;-2.750;2023-08-08T00:10:33;18.00;71.40
81202;DHT22;71068;47.662;-2.750;2023-08-08T00:12:59;18.00;72.10
81202;DHT22;71068;47.662;-2.750;2023-08-08T00:15:26;17.90;71.40
81202;DHT22;71068;47.662;-2.750;2023-08-08T00:17:52;18.00;71.90
81202;DHT22;71068;47.662;-2.750;2023-08-08T00:20:22;18.00;71.40
81202;DHT22;71068;47.662;-2.750;2023-08-08T00:22:48;18.00;71.80
81202;DHT22;71068;47.662;-2.750;2023-08-08T00:25:19;18.00;71.70
81202;DHT22;71068;47.662;-2.750;2023-08-08T00:27:45;17.90;72.10
81202;DHT22;71068;47.662;-2.750;2023-08-08T00:30:12;17.90;72.30
81202;DHT22;71068;47.662;-2.750;2023-08-08T00:32:39;17.90;72.50
81202;DHT22;71068;47.662;-2.750;2023-08-08T00:35:06;17.80;72.80
81202;DHT22;71068;47.662;-2.750;2023-08-08T00:37:33;17.70;73.10
81202;DHT22;71068;47.662;-2.750;2023-08-08T00:39:59;17.70;73.00
81202;DHT22;71068;47.662;-2.750;2023-08-08T00:42:26;17.80;72.30
81202;DHT22;71068;47.662;-2.750;2023-08-08T00:44:53;17.80;72.50
81202;DHT22;71068;47.662;-2.750;2023-08-08T00:47:19;17.80;73.00
81202;DHT22;71068;47.662;-2.750;2023-08-08T00:49:45;17.70;72.80
81202;DHT22;71068;47.662;-2.750;2023-08-08T00:52:15;17.70;73.10
81202;DHT22;71068;47.662;-2.750;2023-08-08T00:54:41;17.70;73.00
81202;DHT22;71068;47.662;-2.750;2023-08-08T00:57:08;17.80;72.00
81202;DHT22;71068;47.662;-2.750;2023-08-08T00:59:34;17.80;71.90
81202;DHT22;71068;47.662;-2.750;2023-08-08T01:02:02;17.80;72.00
81202;DHT22;71068;47.662;-2.750;2023-08-08T01:04:28;17.70;71.80
81202;DHT22;71068;47.662;-2.750;2023-08-08T01:06:58;17.80;72.50
81202;DHT22;71068;47.662;-2.750;2023-08-08T01:09:37;17.70;72.20
81202;DHT22;71068;47.662;-2.750;2023-08-08T01:12:08;17.70;72.50
81202;DHT22;71068;47.662;-2.750;2023-08-08T01:14:38;17.60;73.70
81202;DHT22;71068;47.662;-2.750;2023-08-08T01:17:06;17.50;73.80
81202;DHT22;71068;47.662;-2.750;2023-08-08T01:19:34;17.60;73.70
81202;DHT22;71068;47.662;-2.750;2023-08-08T01:22:04;17.50;74.40
81202;DHT22;71068;47.662;-2.750;2023-08-08T01:24:31;17.40;74.10
81202;DHT22;71068;47.662;-2.750;2023-08-08T01:27:04;17.40;73.10
81202;DHT22;71068;47.662;-2.750;2023-08-08T01:29:36;17.60;72.80
81202;DHT22;71068;47.662;-2.750;2023-08-08T01:32:03;17.70;72.90
81202;DHT22;71068;47.662;-2.750;2023-08-08T01:34:29;17.60;72.60
81202;DHT22;71068;47.662;-2.750;2023-08-08T01:36:59;17.80;72.30
81202;DHT22;71068;47.662;-2.750;2023-08-08T01:39:30;17.80;73.00
81202;DHT22;71068;47.662;-2.750;2023-08-08T01:41:58;17.60;72.60
81202;DHT22;71068;47.662;-2.750;2023-08-08T01:44:26;17.70;72.00
81202;DHT22;71068;47.662;-2.750;2023-08-08T01:46:57;17.80;73.80
81202;DHT22;71068;47.662;-2.750;2023-08-08T01:49:23;17.60;73.70
81202;DHT22;71068;47.662;-2.750;2023-08-08T01:51:49;17.70;73.50
81202;DHT22;71068;47.662;-2.750;2023-08-08T01:54:26;17.80;73.20
81202;DHT22;71068;47.662;-2.750;2023-08-08T01:56:52;17.80;73.50
81202;DHT22;71068;47.662;-2.750;2023-08-08T01:59:21;17.90;72.50
81202;DHT22;71068;47.662;-2.750;2023-08-08T02:01:48;17.90;73.60
81202;DHT22;71068;47.662;-2.750;2023-08-08T02:04:14;18.00;73.00
81202;DHT22;71068;47.662;-2.750;2023-08-08T02:06:40;18.00;72.50
81202;DHT22;71068;47.662;-2.750;2023-08-08T02:09:07;18.00;71.90
81202;DHT22;71068;47.662;-2.750;2023-08-08T02:11:34;18.20;71.60
81202;DHT22;71068;47.662;-2.750;2023-08-08T02:14:02;18.10;71.30
81202;DHT22;71068;47.662;-2.750;2023-08-08T02:16:28;18.10;71.80
81202;DHT22;71068;47.662;-2.750;2023-08-08T02:19:00;18.00;71.70
81202;DHT22;71068;47.662;-2.750;2023-08-08T02:21:28;18.00;71.80
81202;DHT22;71068;47.662;-2.750;2023-08-08T02:23:59;17.90;71.90
81202;DHT22;71068;47.662;-2.750;2023-08-08T02:26:25;17.90;71.80
81202;DHT22;71068;47.662;-2.750;2023-08-08T02:28:53;18.00;72.00
81202;DHT22;71068;47.662;-2.750;2023-08-08T02:31:21;17.90;73.70
81202;DHT22;71068;47.662;-2.750;2023-08-08T02:33:51;18.00;73.50
81202;DHT22;71068;47.662;-2.750;2023-08-08T02:36:18;17.90;73.10
81202;DHT22;71068;47.662;-2.750;2023-08-08T02:38:44;17.90;73.70
81202;DHT22;71068;47.662;-2.750;2023-08-08T02:41:12;17.90;74.10
81202;DHT22;71068;47.662;-2.750;2023-08-08T02:43:39;18.00;73.30
81202;DHT22;71068;47.662;-2.750;2023-08-08T02:46:05;18.10;72.70
81202;DHT22;71068;47.662;-2.750;2023-08-08T02:48:31;18.20;73.00
81202;DHT22;71068;47.662;-2.750;2023-08-08T02:50:57;18.20;72.00
81202;DHT22;71068;47.662;-2.750;2023-08-08T02:53:23;18.30;72.10
81202;DHT22;71068;47.662;-2.750;2023-08-08T02:55:49;18.30;72.40
81202;DHT22;71068;47.662;-2.750;2023-08-08T02:58:15;18.30;72.30
81202;DHT22;71068;47.662;-2.750;2023-08-08T03:00:41;18.40;72.30
81202;DHT22;71068;47.662;-2.750;2023-08-08T03:03:11;18.30;72.80
81202;DHT22;71068;47.662;-2.750;2023-08-08T03:05:37;18.30;72.80
81202;DHT22;71068;47.662;-2.750;2023-08-08T03:08:03;18.40;72.40
81202;DHT22;71068;47.662;-2.750;2023-08-08T03:10:31;18.20;72.00
81202;DHT22;71068;47.662;-2.750;2023-08-08T03:12:59;18.30;72.30
81202;DHT22;71068;47.662;-2.750;2023-08-08T03:15:27;18.30;72.00
81202;DHT22;71068;47.662;-2.750;2023-08-08T03:17:53;18.30;72.40
81202;DHT22;71068;47.662;-2.750;2023-08-08T03:20:20;18.10;72.90
81202;DHT22;71068;47.662;-2.750;2023-08-08T03:22:46;18.10;72.90
81202;DHT22;71068;47.662;-2.750;2023-08-08T03:25:14;17.90;73.30
81202;DHT22;71068;47.662;-2.750;2023-08-08T03:27:41;17.90;73.30
81202;DHT22;71068;47.662;-2.750;2023-08-08T03:30:09;17.70;73.50
81202;DHT22;71068;47.662;-2.750;2023-08-08T03:32:36;17.60;74.30
81202;DHT22;71068;47.662;-2.750;2023-08-08T03:35:04;17.30;74.80
81202;DHT22;71068;47.662;-2.750;2023-08-08T03:37:30;17.20;75.50
81202;DHT22;71068;47.662;-2.750;2023-08-08T03:39:56;17.20;75.70
81202;DHT22;71068;47.662;-2.750;2023-08-08T03:42:22;17.20;75.40
81202;DHT22;71068;47.662;-2.750;2023-08-08T03:44:49;17.20;75.70
81202;DHT22;71068;47.662;-2.750;2023-08-08T03:47:15;17.10;75.80
81202;DHT22;71068;47.662;-2.750;2023-08-08T03:49:42;17.00;76.30
81202;DHT22;71068;47.662;-2.750;2023-08-08T03:52:10;17.30;75.50
81202;DHT22;71068;47.662;-2.750;2023-08-08T03:54:36;17.30;75.70
81202;DHT22;71068;47.662;-2.750;2023-08-08T03:57:02;17.30;75.20
81202;DHT22;71068;47.662;-2.750;2023-08-08T03:59:29;17.40;75.20
81202;DHT22;71068;47.662;-2.750;2023-08-08T04:01:56;17.40;75.30
81202;DHT22;71068;47.662;-2.750;2023-08-08T04:04:23;17.50;75.00
81202;DHT22;71068;47.662;-2.750;2023-08-08T04:06:52;17.30;75.40
81202;DHT22;71068;47.662;-2.750;2023-08-08T04:09:18;17.40;75.30
81202;DHT22;71068;47.662;-2.750;2023-08-08T04:11:43;17.30;75.60
81202;DHT22;71068;47.662;-2.750;2023-08-08T04:14:10;17.20;75.50
81202;DHT22;71068;47.662;-2.750;2023-08-08T04:16:39;17.20;75.40
81202;DHT22;71068;47.662;-2.750;2023-08-08T04:19:06;17.30;75.70
81202;DHT22;71068;47.662;-2.750;2023-08-08T04:21:34;17.30;75.40
81202;DHT22;71068;47.662;-2.750;2023-08-08T04:24:02;17.30;75.30
81202;DHT22;71068;47.662;-2.750;2023-08-08T04:26:29;17.30;75.50
81202;DHT22;71068;47.662;-2.750;2023-08-08T04:28:57;17.20;75.80
81202;DHT22;71068;47.662;-2.750;2023-08-08T04:31:23;17.10;76.40
81202;DHT22;71068;47.662;-2.750;2023-08-08T04:33:52;17.00;76.70
81202;DHT22;71068;47.662;-2.750;2023-08-08T04:36:24;17.00;76.60
81202;DHT22;71068;47.662;-2.750;2023-08-08T04:38:50;16.80;76.90
81202;DHT22;71068;47.662;-2.750;2023-08-08T04:41:16;16.90;76.80
81202;DHT22;71068;47.662;-2.750;2023-08-08T04:43:43;17.00;76.90
81202;DHT22;71068;47.662;-2.750;2023-08-08T04:46:12;17.00;76.60
81202;DHT22;71068;47.662;-2.750;2023-08-08T04:48:39;17.20;76.80
81202;DHT22;71068;47.662;-2.750;2023-08-08T04:51:05;17.00;77.30
81202;DHT22;71068;47.662;-2.750;2023-08-08T04:53:32;17.10;76.70
81202;DHT22;71068;47.662;-2.750;2023-08-08T04:55:59;17.10;77.30
81202;DHT22;71068;47.662;-2.750;2023-08-08T04:58:25;17.10;77.10
81202;DHT22;71068;47.662;-2.750;2023-08-08T05:00:51;17.10;76.30
81202;DHT22;71068;47.662;-2.750;2023-08-08T05:03:17;17.20;76.60
81202;DHT22;71068;47.662;-2.750;2023-08-08T05:05:43;17.20;76.40
81202;DHT22;71068;47.662;-2.750;2023-08-08T05:08:14;17.00;76.60
81202;DHT22;71068;47.662;-2.750;2023-08-08T05:10:40;17.00;77.30
81202;DHT22;71068;47.662;-2.750;2023-08-08T05:13:06;17.00;77.30
81202;DHT22;71068;47.662;-2.750;2023-08-08T05:15:34;17.10;77.10
81202;DHT22;71068;47.662;-2.750;2023-08-08T05:18:00;17.00;77.60
81202;DHT22;71068;47.662;-2.750;2023-08-08T05:20:26;17.10;77.40
81202;DHT22;71068;47.662;-2.750;2023-08-08T05:22:52;17.30;76.40
81202;DHT22;71068;47.662;-2.750;2023-08-08T05:25:18;17.40;76.30
81202;DHT22;71068;47.662;-2.750;2023-08-08T05:27:45;17.50;76.50
81202;DHT22;71068;47.662;-2.750;2023-08-08T05:30:12;17.60;75.90
81202;DHT22;71068;47.662;-2.750;2023-08-08T05:32:38;17.40;76.40
81202;DHT22;71068;47.662;-2.750;2023-08-08T05:35:04;17.40;76.60
81202;DHT22;71068;47.662;-2.750;2023-08-08T05:37:30;17.30;76.30
81202;DHT22;71068;47.662;-2.750;2023-08-08T05:39:56;17.30;76.60
81202;DHT22;71068;47.662;-2.750;2023-08-08T05:42:22;17.70;75.70
81202;DHT22;71068;47.662;-2.750;2023-08-08T05:44:48;17.70;76.00
81202;DHT22;71068;47.662;-2.750;2023-08-08T05:47:14;17.70;75.70
81202;DHT22;71068;47.662;-2.750;2023-08-08T05:49:41;17.80;75.20
81202;DHT22;71068;47.662;-2.750;2023-08-08T05:52:10;17.90;74.80
81202;DHT22;71068;47.662;-2.750;2023-08-08T05:54:36;18.00;74.50
81202;DHT22;71068;47.662;-2.750;2023-08-08T05:57:04;18.20;74.70
81202;DHT22;71068;47.662;-2.750;2023-08-08T05:59:31;18.20;75.00
81202;DHT22;71068;47.662;-2.750;2023-08-08T06:01:57;18.20;74.60
81202;DHT22;71068;47.662;-2.750;2023-08-08T06:04:26;18.20;74.50
81202;DHT22;71068;47.662;-2.750;2023-08-08T06:06:57;18.30;73.90
81202;DHT22;71068;47.662;-2.750;2023-08-08T06:09:28;18.40;73.90
81202;DHT22;71068;47.662;-2.750;2023-08-08T06:12:04;18.50;74.60
81202;DHT22;71068;47.662;-2.750;2023-08-08T06:14:31;18.50;74.00
81202;DHT22;71068;47.662;-2.750;2023-08-08T06:17:04;18.50;74.10
81202;DHT22;71068;47.662;-2.750;2023-08-08T06:19:31;18.40;74.60
81202;DHT22;71068;47.662;-2.750;2023-08-08T06:21:57;18.50;74.10
81202;DHT22;71068;47.662;-2.750;2023-08-08T06:24:24;18.50;74.40
81202;DHT22;71068;47.662;-2.750;2023-08-08T06:26:49;18.60;74.40
81202;DHT22;71068;47.662;-2.750;2023-08-08T06:29:15;18.60;73.90
81202;DHT22;71068;47.662;-2.750;2023-08-08T06:31:42;18.60;73.80
81202;DHT22;71068;47.662;-2.750;2023-08-08T06:34:08;18.50;74.00
81202;DHT22;71068;47.662;-2.750;2023-08-08T06:36:35;18.50;74.10
81202;DHT22;71068;47.662;-2.750;2023-08-08T06:39:02;18.50;73.90
81202;DHT22;71068;47.662;-2.750;2023-08-08T06:41:29;18.60;73.90
81202;DHT22;71068;47.662;-2.750;2023-08-08T06:43:55;18.60;74.30
81202;DHT22;71068;47.662;-2.750;2023-08-08T06:46:21;18.50;73.90
81202;DHT22;71068;47.662;-2.750;2023-08-08T06:48:48;18.40;74.30
81202;DHT22;71068;47.662;-2.750;2023-08-08T06:51:15;18.50;74.50
81202;DHT22;71068;47.662;-2.750;2023-08-08T06:53:43;18.50;74.30
81202;DHT22;71068;47.662;-2.750;2023-08-08T06:56:11;18.60;74.60
81202;DHT22;71068;47.662;-2.750;2023-08-08T06:58:40;18.60;74.10
81202;DHT22;71068;47.662;-2.750;2023-08-08T07:01:07;18.80;73.60
81202;DHT22;71068;47.662;-2.750;2023-08-08T07:03:33;18.90;73.00
81202;DHT22;71068;47.662;-2.750;2023-08-08T07:06:02;19.10;72.30
81202;DHT22;71068;47.662;-2.750;2023-08-08T07:08:29;19.10;71.50
81202;DHT22;71068;47.662;-2.750;2023-08-08T07:10:57;19.20;71.50
81202;DHT22;71068;47.662;-2.750;2023-08-08T07:13:23;19.30;71.00
81202;DHT22;71068;47.662;-2.750;2023-08-08T07:15:50;19.40;71.30
81202;DHT22;71068;47.662;-2.750;2023-08-08T07:18:16;19.50;69.70
81202;DHT22;71068;47.662;-2.750;2023-08-08T07:20:43;19.50;69.20
81202;DHT22;71068;47.662;-2.750;2023-08-08T07:23:10;19.50;69.10
81202;DHT22;71068;47.662;-2.750;2023-08-08T07:25:36;19.40;68.10
81202;DHT22;71068;47.662;-2.750;2023-08-08T07:28:04;19.40;68.80
81202;DHT22;71068;47.662;-2.750;2023-08-08T07:30:30;19.40;69.00
81202;DHT22;71068;47.662;-2.750;2023-08-08T07:32:56;19.40;69.70
81202;DHT22;71068;47.662;-2.750;2023-08-08T07:35:22;19.50;69.00
81202;DHT22;71068;47.662;-2.750;2023-08-08T07:37:48;19.50;68.50
81202;DHT22;71068;47.662;-2.750;2023-08-08T07:40:20;19.30;67.40
81202;DHT22;71068;47.662;-2.750;2023-08-08T07:42:48;19.30;68.20
81202;DHT22;71068;47.662;-2.750;2023-08-08T07:45:16;19.40;67.00
81202;DHT22;71068;47.662;-2.750;2023-08-08T07:47:45;19.50;67.10
81202;DHT22;71068;47.662;-2.750;2023-08-08T07:50:14;19.50;66.80
81202;DHT22;71068;47.662;-2.750;2023-08-08T07:52:40;19.50;64.50
81202;DHT22;71068;47.662;-2.750;2023-08-08T07:55:06;19.50;65.70
81202;DHT22;71068;47.662;-2.750;2023-08-08T07:57:33;19.50;65.20
81202;DHT22;71068;47.662;-2.750;2023-08-08T08:00:04;19.80;65.50
81202;DHT22;71068;47.662;-2.750;2023-08-08T08:02:33;19.80;63.70
81202;DHT22;71068;47.662;-2.750;2023-08-08T08:04:59;19.80;63.30
81202;DHT22;71068;47.662;-2.750;2023-08-08T08:07:26;19.90;64.80
81202;DHT22;71068;47.662;-2.750;2023-08-08T08:09:55;20.00;65.30
81202;DHT22;71068;47.662;-2.750;2023-08-08T08:12:21;20.10;64.40
81202;DHT22;71068;47.662;-2.750;2023-08-08T08:14:47;20.00;62.60
81202;DHT22;71068;47.662;-2.750;2023-08-08T08:17:22;20.10;64.10
81202;DHT22;71068;47.662;-2.750;2023-08-08T08:19:53;20.40;63.60
81202;DHT22;71068;47.662;-2.750;2023-08-08T08:22:19;20.40;64.00
81202;DHT22;71068;47.662;-2.750;2023-08-08T08:24:45;20.50;63.70
81202;DHT22;71068;47.662;-2.750;2023-08-08T08:27:13;20.30;64.70
81202;DHT22;71068;47.662;-2.750;2023-08-08T08:29:40;20.30;65.70
81202;DHT22;71068;47.662;-2.750;2023-08-08T08:32:07;20.50;63.70
81202;DHT22;71068;47.662;-2.750;2023-08-08T08:34:34;20.70;62.20
81202;DHT22;71068;47.662;-2.750;2023-08-08T08:37:00;20.80;62.50
81202;DHT22;71068;47.662;-2.750;2023-08-08T08:39:26;21.00;62.20
81202;DHT22;71068;47.662;-2.750;2023-08-08T08:41:58;21.10;61.40
81202;DHT22;71068;47.662;-2.750;2023-08-08T08:44:27;21.20;60.20
81202;DHT22;71068;47.662;-2.750;2023-08-08T08:47:04;20.90;60.20
81202;DHT22;71068;47.662;-2.750;2023-08-08T08:49:38;20.90;61.20
81202;DHT22;71068;47.662;-2.750;2023-08-08T08:52:05;20.60;61.90
81202;DHT22;71068;47.662;-2.750;2023-08-08T08:54:33;20.80;62.30
81202;DHT22;71068;47.662;-2.750;2023-08-08T08:57:03;21.10;61.80
81202;DHT22;71068;47.662;-2.750;2023-08-08T08:59:29;21.30;60.20
81202;DHT22;71068;47.662;-2.750;2023-08-08T09:01:57;21.20;62.20
81202;DHT22;71068;47.662;-2.750;2023-08-08T09:04:27;21.10;61.30
81202;DHT22;71068;47.662;-2.750;2023-08-08T09:06:54;21.50;59.80
81202;DHT22;71068;47.662;-2.750;2023-08-08T09:09:21;21.50;59.40
81202;DHT22;71068;47.662;-2.750;2023-08-08T09:11:52;21.70;59.60
81202;DHT22;71068;47.662;-2.750;2023-08-08T09:14:26;21.50;60.10
81202;DHT22;71068;47.662;-2.750;2023-08-08T09:16:56;21.20;60.90
81202;DHT22;71068;47.662;-2.750;2023-08-08T09:19:23;21.40;60.90
81202;DHT22;71068;47.662;-2.750;2023-08-08T09:21:52;21.60;56.90
81202;DHT22;71068;47.662;-2.750;2023-08-08T09:24:18;21.70;56.70
81202;DHT22;71068;47.662;-2.750;2023-08-08T09:26:45;21.90;56.30
81202;DHT22;71068;47.662;-2.750;2023-08-08T09:29:13;22.10;58.10
81202;DHT22;71068;47.662;-2.750;2023-08-08T09:31:42;22.50;56.20
81202;DHT22;71068;47.662;-2.750;2023-08-08T09:34:09;22.70;55.80
81202;DHT22;71068;47.662;-2.750;2023-08-08T09:36:36;21.60;58.70
81202;DHT22;71068;47.662;-2.750;2023-08-08T09:39:02;21.90;58.30
81202;DHT22;71068;47.662;-2.750;2023-08-08T09:41:29;22.10;57.40
81202;DHT22;71068;47.662;-2.750;2023-08-08T09:43:56;22.10;56.80
81202;DHT22;71068;47.662;-2.750;2023-08-08T09:46:22;21.60;59.20
81202;DHT22;71068;47.662;-2.750;2023-08-08T09:48:48;21.80;59.00
81202;DHT22;71068;47.662;-2.750;2023-08-08T09:51:16;22.00;58.30
81202;DHT22;71068;47.662;-2.750;2023-08-08T09:53:42;22.30;58.20
81202;DHT22;71068;47.662;-2.750;2023-08-08T09:56:09;22.10;59.30
81202;DHT22;71068;47.662;-2.750;2023-08-08T09:58:36;22.40;56.30
81202;DHT22;71068;47.662;-2.750;2023-08-08T10:01:05;22.40;56.80
81202;DHT22;71068;47.662;-2.750;2023-08-08T10:03:31;22.20;58.40
81202;DHT22;71068;47.662;-2.750;2023-08-08T10:05:58;22.10;58.80
81202;DHT22;71068;47.662;-2.750;2023-08-08T10:08:24;22.10;58.40
81202;DHT22;71068;47.662;-2.750;2023-08-08T10:10:51;22.10;58.60
81202;DHT22;71068;47.662;-2.750;2023-08-08T10:13:25;22.50;58.70
81202;DHT22;71068;47.662;-2.750;2023-08-08T10:15:53;22.80;56.20
81202;DHT22;71068;47.662;-2.750;2023-08-08T10:18:23;23.00;55.20
81202;DHT22;71068;47.662;-2.750;2023-08-08T10:20:51;23.00;56.20
81202;DHT22;71068;47.662;-2.750;2023-08-08T10:23:19;22.90;56.30
81202;DHT22;71068;47.662;-2.750;2023-08-08T10:25:46;22.60;58.40
81202;DHT22;71068;47.662;-2.750;2023-08-08T10:28:21;22.60;58.50
81202;DHT22;71068;47.662;-2.750;2023-08-08T10:30:56;23.20;56.00
81202;DHT22;71068;47.662;-2.750;2023-08-08T10:33:28;23.60;53.40
81202;DHT22;71068;47.662;-2.750;2023-08-08T10:36:07;23.80;53.50
81202;DHT22;71068;47.662;-2.750;2023-08-08T10:38:45;24.00;53.50
81202;DHT22;71068;47.662;-2.750;2023-08-08T10:41:18;23.90;53.40
81202;DHT22;71068;47.662;-2.750;2023-08-08T10:43:55;23.90;53.20
81202;DHT22;71068;47.662;-2.750;2023-08-08T10:46:33;23.70;53.60
81202;DHT22;71068;47.662;-2.750;2023-08-08T10:49:01;23.20;56.90
81202;DHT22;71068;47.662;-2.750;2023-08-08T10:51:42;23.50;55.90
81202;DHT22;71068;47.662;-2.750;2023-08-08T10:54:23;23.90;55.90
81202;DHT22;71068;47.662;-2.750;2023-08-08T10:56:57;23.60;55.60
81202;DHT22;71068;47.662;-2.750;2023-08-08T11:02:02;24.00;54.40
81202;DHT22;71068;47.662;-2.750;2023-08-08T11:04:28;24.00;54.70
81202;DHT22;71068;47.662;-2.750;2023-08-08T11:07:08;24.10;53.10
81202;DHT22;71068;47.662;-2.750;2023-08-08T11:09:34;24.10;55.80
81202;DHT22;71068;47.662;-2.750;2023-08-08T11:12:19;24.40;53.30
81202;DHT22;71068;47.662;-2.750;2023-08-08T11:14:45;24.30;53.50
81202;DHT22;71068;47.662;-2.750;2023-08-08T11:17:24;24.20;54.20
81202;DHT22;71068;47.662;-2.750;2023-08-08T11:20:25;24.30;54.40
81202;DHT22;71068;47.662;-2.750;2023-08-08T11:22:58;24.30;54.30
81202;DHT22;71068;47.662;-2.750;2023-08-08T11:25:39;23.90;56.20
81202;DHT22;71068;47.662;-2.750;2023-08-08T11:28:11;23.30;57.70
81202;DHT22;71068;47.662;-2.750;2023-08-08T11:30:43;23.60;57.30
81202;DHT22;71068;47.662;-2.750;2023-08-08T11:33:13;23.60;56.90
81202;DHT22;71068;47.662;-2.750;2023-08-08T11:35:46;23.20;57.10
81202;DHT22;71068;47.662;-2.750;2023-08-08T11:38:16;23.40;56.90
81202;DHT22;71068;47.662;-2.750;2023-08-08T11:40:43;23.60;57.10
81202;DHT22;71068;47.662;-2.750;2023-08-08T11:43:29;23.70;57.00
81202;DHT22;71068;47.662;-2.750;2023-08-08T11:46:15;23.50;57.20
81202;DHT22;71068;47.662;-2.750;2023-08-08T11:48:41;23.30;57.30
81202;DHT22;71068;47.662;-2.750;2023-08-08T11:51:08;23.30;57.70
81202;DHT22;71068;47.662;-2.750;2023-08-08T11:53:35;22.80;58.80
81202;DHT22;71068;47.662;-2.750;2023-08-08T11:56:04;23.20;58.00
81202;DHT22;71068;47.662;-2.750;2023-08-08T11:58:30;23.60;57.20
81202;DHT22;71068;47.662;-2.750;2023-08-08T12:00:57;23.00;57.40
81202;DHT22;71068;47.662;-2.750;2023-08-08T12:03:25;23.00;58.60
81202;DHT22;71068;47.662;-2.750;2023-08-08T12:05:57;23.40;57.60
81202;DHT22;71068;47.662;-2.750;2023-08-08T12:08:30;23.90;56.40
81202;DHT22;71068;47.662;-2.750;2023-08-08T12:11:01;23.60;57.00
81202;DHT22;71068;47.662;-2.750;2023-08-08T12:13:27;23.40;57.80
81202;DHT22;71068;47.662;-2.750;2023-08-08T12:15:55;23.10;58.80
81202;DHT22;71068;47.662;-2.750;2023-08-08T12:18:25;22.70;59.70
81202;DHT22;71068;47.662;-2.750;2023-08-08T12:20:52;23.10;58.30
81202;DHT22;71068;47.662;-2.750;2023-08-08T12:23:18;24.00;56.20
81202;DHT22;71068;47.662;-2.750;2023-08-08T12:25:46;24.40;55.30
81202;DHT22;71068;47.662;-2.750;2023-08-08T12:28:13;24.90;53.80
81202;DHT22;71068;47.662;-2.750;2023-08-08T12:30:39;24.90;53.70
81202;DHT22;71068;47.662;-2.750;2023-08-08T12:33:06;24.40;54.90
81202;DHT22;71068;47.662;-2.750;2023-08-08T12:35:32;23.90;56.10
81202;DHT22;71068;47.662;-2.750;2023-08-08T12:37:57;24.30;55.00
81202;DHT22;71068;47.662;-2.750;2023-08-08T12:40:23;24.10;55.60
81202;DHT22;71068;47.662;-2.750;2023-08-08T12:42:52;23.70;57.00
81202;DHT22;71068;47.662;-2.750;2023-08-08T12:45:18;23.90;56.70
81202;DHT22;71068;47.662;-2.750;2023-08-08T12:47:44;23.20;58.00
81202;DHT22;71068;47.662;-2.750;2023-08-08T12:50:18;23.70;56.90
81202;DHT22;71068;47.662;-2.750;2023-08-08T12:52:46;24.20;55.60
81202;DHT22;71068;47.662;-2.750;2023-08-08T12:55:19;23.90;57.00
81202;DHT22;71068;47.662;-2.750;2023-08-08T12:57:48;23.30;58.10
81202;DHT22;71068;47.662;-2.750;2023-08-08T13:00:43;22.70;59.00
81202;DHT22;71068;47.662;-2.750;2023-08-08T13:03:34;22.70;59.90
81202;DHT22;71068;47.662;-2.750;2023-08-08T13:06:07;22.80;60.20
81202;DHT22;71068;47.662;-2.750;2023-08-08T13:08:33;22.60;60.70
81202;DHT22;71068;47.662;-2.750;2023-08-08T13:11:01;22.60;60.90
81202;DHT22;71068;47.662;-2.750;2023-08-08T13:13:28;22.80;59.80
81202;DHT22;71068;47.662;-2.750;2023-08-08T13:15:56;23.00;58.90
81202;DHT22;71068;47.662;-2.750;2023-08-08T13:18:25;22.60;60.70
81202;DHT22;71068;47.662;-2.750;2023-08-08T13:20:57;22.80;60.80
81202;DHT22;71068;47.662;-2.750;2023-08-08T13:23:23;22.50;61.40
81202;DHT22;71068;47.662;-2.750;2023-08-08T13:25:51;23.00;60.60
81202;DHT22;71068;47.662;-2.750;2023-08-08T13:28:17;23.30;59.40
81202;DHT22;71068;47.662;-2.750;2023-08-08T13:30:43;22.90;58.90
81202;DHT22;71068;47.662;-2.750;2023-08-08T13:33:16;23.40;57.50
81202;DHT22;71068;47.662;-2.750;2023-08-08T13:35:44;23.00;58.20
81202;DHT22;71068;47.662;-2.750;2023-08-08T13:38:10;23.00;58.90
81202;DHT22;71068;47.662;-2.750;2023-08-08T13:40:45;23.20;58.60
81202;DHT22;71068;47.662;-2.750;2023-08-08T13:43:13;22.40;60.00
81202;DHT22;71068;47.662;-2.750;2023-08-08T13:45:40;23.10;59.10
81202;DHT22;71068;47.662;-2.750;2023-08-08T13:48:06;23.20;58.40
81202;DHT22;71068;47.662;-2.750;2023-08-08T13:50:42;23.80;57.50
81202;DHT22;71068;47.662;-2.750;2023-08-08T13:53:08;23.60;56.60
81202;DHT22;71068;47.662;-2.750;2023-08-08T13:55:34;24.30;55.10
81202;DHT22;71068;47.662;-2.750;2023-08-08T13:58:07;24.80;54.30
81202;DHT22;71068;47.662;-2.750;2023-08-08T14:00:33;25.20;53.60
81202;DHT22;71068;47.662;-2.750;2023-08-08T14:03:02;25.10;52.70
81202;DHT22;71068;47.662;-2.750;2023-08-08T14:05:29;25.70;51.20
81202;DHT22;71068;47.662;-2.750;2023-08-08T14:07:57;26.30;50.70
81202;DHT22;71068;47.662;-2.750;2023-08-08T14:10:25;26.70;49.60
81202;DHT22;71068;47.662;-2.750;2023-08-08T14:12:51;26.80;47.80
81202;DHT22;71068;47.662;-2.750;2023-08-08T14:15:17;26.90;48.00
81202;DHT22;71068;47.662;-2.750;2023-08-08T14:17:43;26.70;50.50
81202;DHT22;71068;47.662;-2.750;2023-08-08T14:20:11;27.00;49.10
81202;DHT22;71068;47.662;-2.750;2023-08-08T14:22:37;27.10;49.50
81202;DHT22;71068;47.662;-2.750;2023-08-08T14:25:03;27.30;48.20
81202;DHT22;71068;47.662;-2.750;2023-08-08T14:27:32;27.70;46.50
81202;DHT22;71068;47.662;-2.750;2023-08-08T14:30:02;27.60;46.50
81202;DHT22;71068;47.662;-2.750;2023-08-08T14:32:29;27.50;48.70
81202;DHT22;71068;47.662;-2.750;2023-08-08T14:34:56;27.70;47.40
81202;DHT22;71068;47.662;-2.750;2023-08-08T14:37:22;27.60;47.10
81202;DHT22;71068;47.662;-2.750;2023-08-08T14:39:48;27.80;46.90
81202;DHT22;71068;47.662;-2.750;2023-08-08T14:42:14;27.80;46.50
81202;DHT22;71068;47.662;-2.750;2023-08-08T14:44:42;27.90;46.90
81202;DHT22;71068;47.662;-2.750;2023-08-08T14:47:10;27.90;48.70
81202;DHT22;71068;47.662;-2.750;2023-08-08T14:49:37;27.90;47.30
81202;DHT22;71068;47.662;-2.750;2023-08-08T14:52:03;27.40;48.00
81202;DHT22;71068;47.662;-2.750;2023-08-08T14:54:30;28.00;47.10
81202;DHT22;71068;47.662;-2.750;2023-08-08T14:56:56;28.20;46.90
81202;DHT22;71068;47.662;-2.750;2023-08-08T14:59:23;28.10;46.30
81202;DHT22;71068;47.662;-2.750;2023-08-08T15:01:49;27.70;46.70
81202;DHT22;71068;47.662;-2.750;2023-08-08T15:04:15;27.50;47.60
81202;DHT22;71068;47.662;-2.750;2023-08-08T15:06:42;27.50;47.50
81202;DHT22;71068;47.662;-2.750;2023-08-08T15:09:09;27.50;47.60
81202;DHT22;71068;47.662;-2.750;2023-08-08T15:11:35;27.60;47.60
81202;DHT22;71068;47.662;-2.750;2023-08-08T15:14:02;27.70;46.90
81202;DHT22;71068;47.662;-2.750;2023-08-08T15:16:29;27.10;48.40
81202;DHT22;71068;47.662;-2.750;2023-08-08T15:19:03;27.20;47.00
81202;DHT22;71068;47.662;-2.750;2023-08-08T15:21:31;27.30;47.90
81202;DHT22;71068;47.662;-2.750;2023-08-08T15:23:57;26.90;47.80